Pointe Noire, Canada
Current Conditions -  °F | °C
As of 8:00 PM on Saturday 20 Dec 2014 (Local Time) from CYZV Reporting Station
Few Clouds Few Clouds  
Wind Chill:   Ceiling: Unl
Heat Index:   Visibility: 15mi
Dew Point:   Wind: 3mph
Humidity: 85%   Direction: 40°NE
Pressure: 30.37"   Gusts: NA
Location:  50.15°N, 66.43°W
Report Text: CYZV 210100Z 04003KT 15SM FEW260 M16/M18 A3037 RMK CI1 SLP289
Loading
Personal Weather Stations






























Interactive Weather Map New forecast layout! Learn more

10-Day Weather Forecast

Advertisements
Track Severe Weather on mobile